Time;durP1;ratioP1;P1;durP2;ratioP2;P2;SDS_P1;SDS_P2;PMS_P1;PMS_P2;Temp;Humidity;BMP_temperature;BMP_pressure;BME280_temperature;BME280_humidity;BME280_pressure;Samples;Min_cycle;Max_cycle;Signal;HPM_P1;HPM_P2
2023/05/22 00:02:15;;;;;;;36.30;26.95;;;;;;;17.67;97.07;100839.22;4976907;28;20419;-61
2023/05/22 00:04:41;;;;;;;37.60;26.17;;;;;;;17.63;97.44;100842.00;4978694;28;20038;-63
2023/05/22 00:07:06;;;;;;;41.72;29.02;;;;;;;17.60;97.67;100840.31;4979955;28;20129;-63
2023/05/22 00:09:31;;;;;;;35.10;24.48;;;;;;;17.56;97.73;100843.13;4979774;28;20787;-63
2023/05/22 00:11:57;;;;;;;37.22;26.67;;;;;;;17.54;97.97;100839.72;4987207;28;20150;-63
2023/05/22 00:14:22;;;;;;;38.22;29.05;;;;;;;17.50;97.91;100835.50;4983829;28;20072;-63
2023/05/22 00:16:49;;;;;;;40.65;28.52;;;;;;;17.49;98.16;100837.25;4987910;28;20038;-62
2023/05/22 00:19:15;;;;;;;33.25;23.92;;;;;;;17.44;98.03;100836.56;4991579;28;20043;-63
2023/05/22 00:21:41;;;;;;;33.47;26.27;;;;;;;17.38;98.11;100831.56;4986131;28;20276;-63
2023/05/22 00:24:08;;;;;;;35.72;26.33;;;;;;;17.32;98.30;100835.25;4987373;28;20046;-63
2023/05/22 00:26:33;;;;;;;39.95;28.83;;;;;;;17.30;98.57;100831.84;4988991;28;20069;-63
2023/05/22 00:28:58;;;;;;;33.85;25.40;;;;;;;17.26;98.86;100825.00;4981448;28;20039;-63
2023/05/22 00:31:24;;;;;;;36.58;26.15;;;;;;;17.24;98.98;100826.84;4987229;28;20925;-63
2023/05/22 00:33:49;;;;;;;35.00;24.95;;;;;;;17.22;99.10;100820.78;4981289;28;20706;-63
2023/05/22 00:36:15;;;;;;;31.13;23.83;;;;;;;17.17;99.16;100820.09;4988138;28;20392;-63
2023/05/22 00:38:40;;;;;;;32.67;24.77;;;;;;;17.15;99.45;100823.69;4986003;28;20043;-63
2023/05/22 00:41:06;;;;;;;31.00;23.13;;;;;;;17.11;99.33;100825.53;4986665;28;20716;-63
2023/05/22 00:43:34;;;;;;;35.60;24.42;;;;;;;17.07;99.64;100823.06;4979757;28;20031;-63
2023/05/22 00:46:00;;;;;;;35.63;24.52;;;;;;;17.02;99.51;100824.97;4984874;28;20043;-63
2023/05/22 00:48:25;;;;;;;38.75;25.08;;;;;;;17.01;99.68;100825.91;4985906;28;20034;-64
2023/05/22 00:50:53;;;;;;;37.25;27.38;;;;;;;16.98;100.00;100826.84;4983924;28;20077;-64
2023/05/22 00:53:20;;;;;;;35.75;25.48;;;;;;;16.99;100.00;100832.91;4986786;28;20068;-63
2023/05/22 00:55:46;;;;;;;33.25;25.35;;;;;;;17.00;100.00;100832.03;4983845;28;20085;-64
2023/05/22 00:58:16;;;;;;;38.70;28.05;;;;;;;17.02;100.00;100833.69;4983545;28;20038;-63
2023/05/22 01:00:43;;;;;;;41.20;29.30;;;;;;;17.05;100.00;100832.72;4987353;28;20030;-63
2023/05/22 01:03:09;;;;;;;40.35;30.00;;;;;;;17.07;100.00;100825.69;4986673;28;20034;-63
2023/05/22 01:05:38;;;;;;;44.55;31.23;;;;;;;17.12;100.00;100827.25;4988837;28;20097;-64
2023/05/22 01:08:06;;;;;;;36.28;28.73;;;;;;;17.15;99.85;100831.50;4992822;28;20034;-63
2023/05/22 01:10:33;;;;;;;40.88;29.42;;;;;;;17.17;100.00;100825.31;4992088;28;20132;-63
2023/05/22 01:13:41;;;;;;;38.50;27.92;;;;;;;17.20;100.00;100826.97;4983131;28;20049;-63
2023/05/22 01:16:07;;;;;;;38.92;28.00;;;;;;;17.21;99.90;100826.94;4986020;28;20042;-64
2023/05/22 01:18:38;;;;;;;40.92;30.65;;;;;;;17.23;99.99;100832.09;4985258;28;20921;-63
2023/05/22 01:21:17;;;;;;;41.35;27.15;;;;;;;17.23;99.63;100826.88;4987527;28;20042;-63
2023/05/22 01:24:01;;;;;;;36.75;27.38;;;;;;;17.22;99.79;100823.41;4984092;28;20069;-63
2023/05/22 01:26:57;;;;;;;46.92;32.33;;;;;;;17.20;99.79;100822.59;4986222;28;20035;-63
2023/05/22 01:29:53;;;;;;;39.88;27.52;;;;;;;17.18;100.00;100826.19;5013620;28;20488;-63
2023/05/22 01:32:25;;;;;;;39.50;29.27;;;;;;;17.14;99.97;100822.81;4978527;28;20488;-63
2023/05/22 01:34:55;;;;;;;39.70;29.77;;;;;;;17.13;99.89;100820.25;4984372;28;20046;-63
2023/05/22 01:37:23;;;;;;;40.78;28.77;;;;;;;17.10;100.00;100829.03;4984931;28;20174;-63
2023/05/22 01:39:50;;;;;;;38.30;26.67;;;;;;;17.06;100.00;100822.22;4983098;28;20038;-63
2023/05/22 01:42:16;;;;;;;37.45;27.30;;;;;;;17.04;100.00;100828.41;4983336;28;20137;-63
2023/05/22 01:44:42;;;;;;;34.22;25.27;;;;;;;17.02;100.00;100832.81;4986209;28;20042;-63
2023/05/22 01:47:07;;;;;;;36.58;26.23;;;;;;;16.97;100.00;100835.59;4993676;28;20057;-63
2023/05/22 01:49:34;;;;;;;40.80;31.08;;;;;;;16.97;100.00;100834.75;4988195;28;20038;-63
2023/05/22 01:52:11;;;;;;;42.35;28.83;;;;;;;16.96;100.00;100835.63;4990457;28;20620;-63
2023/05/22 01:54:41;;;;;;;44.53;31.40;;;;;;;16.93;100.00;100830.50;4985656;28;20050;-63
2023/05/22 01:57:35;;;;;;;37.35;27.13;;;;;;;16.93;100.00;100833.13;4986939;28;20078;-63
2023/05/22 02:00:03;;;;;;;43.65;29.77;;;;;;;16.88;100.00;100824.59;4980481;28;20041;-63
2023/05/22 02:02:30;;;;;;;43.55;33.35;;;;;;;16.91;100.00;100830.59;4983175;28;20034;-63
2023/05/22 02:04:59;;;;;;;42.10;30.55;;;;;;;16.91;100.00;100820.13;4988288;28;20034;-63
2023/05/22 02:07:27;;;;;;;39.42;28.55;;;;;;;16.87;100.00;100821.13;4986842;28;20038;-63
2023/05/22 02:09:55;;;;;;;36.03;25.02;;;;;;;16.82;99.96;100826.53;4981498;28;20042;-63
2023/05/22 02:12:21;;;;;;;40.13;30.10;;;;;;;16.78;100.00;100826.66;4985622;28;20121;-63
2023/05/22 02:14:48;;;;;;;43.25;29.88;;;;;;;16.75;100.00;100832.81;4989022;28;20045;-64
2023/05/22 02:17:13;;;;;;;36.20;26.40;;;;;;;16.71;100.00;100822.53;4988932;28;20108;-64
2023/05/22 02:19:39;;;;;;;39.40;28.38;;;;;;;16.66;100.00;100822.66;4980927;28;20050;-64
2023/05/22 02:22:04;;;;;;;37.42;27.38;;;;;;;16.63;100.00;100821.91;4987119;28;20039;-64
2023/05/22 02:24:31;;;;;;;33.83;25.27;;;;;;;16.58;100.00;100829.88;4986110;28;20050;-63
2023/05/22 02:26:57;;;;;;;38.22;28.17;;;;;;;16.53;100.00;100830.94;4984220;28;20402;-64
2023/05/22 02:29:22;;;;;;;37.63;26.65;;;;;;;16.48;100.00;100831.06;4984868;28;20038;-64
2023/05/22 02:31:48;;;;;;;39.15;26.50;;;;;;;16.43;100.00;100827.75;4990915;28;20042;-64
2023/05/22 02:34:13;;;;;;;34.80;25.67;;;;;;;16.39;100.00;100828.75;4978323;28;20042;-64
2023/05/22 02:36:39;;;;;;;44.65;29.63;;;;;;;16.38;100.00;100828.81;4987339;28;20038;-64
2023/05/22 02:39:05;;;;;;;39.58;28.60;;;;;;;16.34;100.00;100820.22;4982128;28;20034;-65
2023/05/22 02:41:30;;;;;;;40.20;27.38;;;;;;;16.31;100.00;100822.91;4985903;28;20045;-64
2023/05/22 02:43:56;;;;;;;35.65;26.83;;;;;;;16.27;100.00;100821.28;4983713;28;20073;-64
2023/05/22 02:46:21;;;;;;;40.75;29.10;;;;;;;16.23;100.00;100823.16;4981493;28;20081;-64
2023/05/22 02:48:47;;;;;;;38.80;26.00;;;;;;;16.19;100.00;100818.94;4986484;28;20039;-65
2023/05/22 02:51:12;;;;;;;35.45;25.95;;;;;;;16.17;100.00;100819.88;4987760;28;20069;-64
2023/05/22 02:53:40;;;;;;;37.92;26.63;;;;;;;16.12;100.00;100820.00;4986186;28;20042;-64
2023/05/22 02:56:11;;;;;;;39.78;28.77;;;;;;;16.12;100.00;100819.16;4978955;28;20479;-64
2023/05/22 02:58:37;;;;;;;39.05;27.25;;;;;;;16.07;100.00;100808.88;4989266;28;20504;-63
2023/05/22 03:01:05;;;;;;;31.85;24.25;;;;;;;16.06;100.00;100811.50;4983535;28;20088;-63
2023/05/22 03:03:32;;;;;;;43.17;29.35;;;;;;;16.02;100.00;100808.16;4983337;28;20105;-63
2023/05/22 03:06:00;;;;;;;38.72;27.92;;;;;;;16.00;100.00;100811.72;4986103;28;20045;-63
2023/05/22 03:08:26;;;;;;;38.13;25.90;;;;;;;15.97;100.00;100815.25;4987291;28;20057;-63
2023/05/22 03:10:52;;;;;;;42.60;29.35;;;;;;;15.95;100.00;100817.06;4979641;28;20043;-63
2023/05/22 03:13:18;;;;;;;37.90;25.35;;;;;;;15.94;100.00;100817.13;4983238;28;20039;-64
2023/05/22 03:15:43;;;;;;;45.78;30.05;;;;;;;15.92;100.00;100806.72;5012643;28;20049;-63
2023/05/22 03:18:09;;;;;;;47.00;33.25;;;;;;;15.94;100.00;100814.50;4978004;28;20042;-63
2023/05/22 03:20:34;;;;;;;43.10;30.98;;;;;;;15.94;100.00;100809.28;4986680;28;20831;-63
2023/05/22 03:23:00;;;;;;;53.33;34.47;;;;;;;15.94;100.00;100814.50;4981705;28;20026;-64
2023/05/22 03:25:25;;;;;;;47.67;32.03;;;;;;;15.93;100.00;100813.66;4982049;28;20041;-64
2023/05/22 03:27:50;;;;;;;48.30;32.25;;;;;;;15.94;100.00;100815.34;4983298;28;20216;-64
2023/05/22 03:30:16;;;;;;;44.92;31.98;;;;;;;15.94;100.00;100811.91;4980821;28;20142;-63
2023/05/22 03:32:41;;;;;;;43.88;29.85;;;;;;;15.91;100.00;100812.00;5012394;28;20758;-63
2023/05/22 03:35:07;;;;;;;48.97;31.58;;;;;;;15.87;100.00;100807.75;4984601;28;20026;-63
2023/05/22 03:37:32;;;;;;;52.17;33.33;;;;;;;15.87;100.00;100807.75;4981256;28;20077;-63
2023/05/22 03:39:58;;;;;;;39.80;27.55;;;;;;;15.86;100.00;100813.84;4982970;28;20041;-63
2023/05/22 03:42:23;;;;;;;42.53;30.08;;;;;;;15.83;100.00;100814.81;4981958;28;20925;-64
2023/05/22 03:44:49;;;;;;;47.03;31.13;;;;;;;15.83;100.00;100813.94;4984919;28;20042;-64
2023/05/22 03:47:14;;;;;;;42.83;30.70;;;;;;;15.81;100.00;100819.22;4986377;28;20652;-63
2023/05/22 03:49:40;;;;;;;44.45;31.98;;;;;;;15.81;100.00;100819.22;4984196;28;20041;-64
2023/05/22 03:52:08;;;;;;;46.03;30.80;;;;;;;15.80;100.00;100820.09;4985111;28;20031;-63
2023/05/22 03:54:33;;;;;;;44.63;30.08;;;;;;;15.80;100.00;100821.84;4982661;28;20046;-64
2023/05/22 03:56:59;;;;;;;47.15;29.58;;;;;;;15.80;100.00;100821.84;4981464;28;20046;-64
2023/05/22 03:59:24;;;;;;;36.75;25.85;;;;;;;15.81;100.00;100820.97;4980224;28;20042;-64
2023/05/22 04:01:50;;;;;;;42.95;28.00;;;;;;;15.80;100.00;100822.72;4982994;28;20484;-64
2023/05/22 04:04:16;;;;;;;44.45;29.95;;;;;;;15.81;100.00;100829.66;4983453;28;20084;-64
2023/05/22 04:06:44;;;;;;;47.17;30.88;;;;;;;15.82;100.00;100823.50;4979788;28;20049;-64
2023/05/22 04:09:12;;;;;;;46.28;32.17;;;;;;;15.85;100.00;100830.41;4980877;28;20042;-63
2023/05/22 04:11:41;;;;;;;46.65;32.60;;;;;;;15.89;100.00;100832.00;4987430;28;20038;-63
2023/05/22 04:14:07;;;;;;;50.63;34.22;;;;;;;15.96;100.00;100830.94;4984272;28;20054;-64
2023/05/22 04:16:32;;;;;;;55.97;34.42;;;;;;;16.02;100.00;100833.38;4983028;28;20064;-64
2023/05/22 04:19:00;;;;;;;52.15;32.50;;;;;;;16.06;100.00;100835.84;4984462;28;20062;-64
2023/05/22 04:21:27;;;;;;;45.22;32.47;;;;;;;16.10;100.00;100829.63;4984923;28;20037;-64
2023/05/22 04:23:52;;;;;;;51.35;34.05;;;;;;;16.16;100.00;100823.38;4979239;28;20050;-64
2023/05/22 04:26:19;;;;;;;53.03;34.55;;;;;;;16.21;100.00;100831.91;4978337;28;20729;-64
2023/05/22 04:28:48;;;;;;;51.63;35.10;;;;;;;16.26;100.00;100837.88;4985652;28;20034;-64
2023/05/22 04:31:13;;;;;;;50.00;33.22;;;;;;;16.31;100.00;100838.56;4978674;28;20045;-64
2023/05/22 04:33:39;;;;;;;51.92;34.47;;;;;;;16.35;99.92;100844.56;4979413;28;20039;-63
2023/05/22 04:36:09;;;;;;;52.03;33.65;;;;;;;16.39;99.49;100851.38;4979053;28;20077;-63
2023/05/22 04:38:35;;;;;;;45.92;33.35;;;;;;;16.41;99.00;100850.44;4979806;28;20057;-63
2023/05/22 04:41:02;;;;;;;48.80;32.88;;;;;;;16.44;98.55;100855.56;4980576;28;20882;-64
2023/05/22 04:43:28;;;;;;;48.78;34.38;;;;;;;16.47;98.13;100855.47;4982185;28;20557;-64
2023/05/22 04:45:55;;;;;;;51.30;34.17;;;;;;;16.48;97.41;100854.53;4982891;28;20046;-63
2023/05/22 04:48:21;;;;;;;50.75;33.83;;;;;;;16.52;97.48;100853.56;4978750;28;20969;-64
2023/05/22 04:50:47;;;;;;;49.22;33.83;;;;;;;16.56;97.18;100862.16;4978821;28;20035;-64
2023/05/22 04:53:13;;;;;;;50.40;33.20;;;;;;;16.60;96.84;100864.59;4982994;28;20026;-63
2023/05/22 04:55:38;;;;;;;50.33;32.22;;;;;;;16.65;96.68;100862.69;4983955;28;20342;-63
2023/05/22 04:58:04;;;;;;;45.80;31.42;;;;;;;16.71;96.35;100864.28;4983333;28;20070;-63
2023/05/22 05:00:30;;;;;;;47.20;32.20;;;;;;;16.74;95.97;100859.78;4986699;28;20061;-63
2023/05/22 05:02:56;;;;;;;44.95;33.08;;;;;;;16.77;95.73;100859.72;4989310;28;20041;-63
2023/05/22 05:05:21;;;;;;;43.88;29.75;;;;;;;16.83;95.40;100859.53;4989331;28;20388;-63
2023/05/22 05:07:48;;;;;;;45.90;33.50;;;;;;;16.90;95.22;100854.13;4983993;28;20034;-64
2023/05/22 05:10:14;;;;;;;43.72;30.95;;;;;;;16.98;95.03;100859.97;4986438;28;20503;-64
2023/05/22 05:12:40;;;;;;;43.22;29.48;;;;;;;17.05;94.74;100861.44;4979935;28;20054;-64
2023/05/22 05:15:06;;;;;;;46.47;29.98;;;;;;;17.08;93.80;100862.19;4985223;28;20043;-63
2023/05/22 05:17:32;;;;;;;46.75;30.52;;;;;;;17.15;93.56;100862.84;4982943;28;20838;-63
2023/05/22 05:19:57;;;;;;;42.67;30.63;;;;;;;17.20;93.16;100863.53;4983563;28;20040;-64
2023/05/22 05:22:22;;;;;;;45.40;31.02;;;;;;;17.25;92.89;100866.84;4984268;28;20034;-63
2023/05/22 05:24:48;;;;;;;43.47;31.58;;;;;;;17.27;92.32;100867.66;4979798;28;20964;-64
2023/05/22 05:27:14;;;;;;;46.70;30.00;;;;;;;17.33;91.94;100865.69;4981866;28;20041;-64
2023/05/22 05:29:40;;;;;;;40.55;28.90;;;;;;;17.40;91.82;100867.19;4981468;28;20046;-64
2023/05/22 05:32:05;;;;;;;45.40;30.90;;;;;;;17.49;91.48;100871.22;4988254;28;20725;-65
2023/05/22 05:34:31;;;;;;;41.75;29.52;;;;;;;17.57;90.93;100866.59;4986242;28;20074;-64
2023/05/22 05:36:56;;;;;;;44.20;29.42;;;;;;;17.62;90.39;100875.13;4991285;28;20046;-65
2023/05/22 05:39:22;;;;;;;43.58;28.92;;;;;;;17.61;90.03;100868.19;4986269;28;20034;-64
2023/05/22 05:41:47;;;;;;;45.72;31.13;;;;;;;17.67;90.00;100875.81;4983870;28;20097;-65
2023/05/22 05:44:12;;;;;;;40.72;28.67;;;;;;;17.73;89.72;100862.53;4982852;28;20049;-64
2023/05/22 05:46:38;;;;;;;43.33;30.17;;;;;;;17.79;89.53;100869.28;4985593;28;20113;-65
2023/05/22 05:49:10;;;;;;;45.08;31.77;;;;;;;17.80;89.00;100866.63;4983378;28;20403;-64
2023/05/22 05:51:36;;;;;;;41.78;30.65;;;;;;;17.82;89.33;100870.03;4986077;28;20038;-65
2023/05/22 05:54:02;;;;;;;42.28;29.52;;;;;;;17.94;89.28;100874.00;4989095;28;20096;-65
2023/05/22 05:56:27;;;;;;;50.10;32.45;;;;;;;17.97;88.56;100877.34;4981220;28;20029;-64
2023/05/22 05:58:53;;;;;;;44.13;30.15;;;;;;;18.09;88.50;100876.03;4984086;28;20121;-65
2023/05/22 06:01:18;;;;;;;44.63;30.95;;;;;;;18.15;87.80;100874.97;4982520;28;20438;-65
2023/05/22 06:03:44;;;;;;;43.20;29.90;;;;;;;18.20;87.67;100880.88;4976185;28;20045;-64
2023/05/22 06:06:10;;;;;;;47.00;32.13;;;;;;;18.18;87.28;100882.69;4990214;28;20065;-65
2023/05/22 06:08:36;;;;;;;42.95;31.00;;;;;;;18.16;87.33;100881.91;4985044;28;20038;-65
2023/05/22 06:11:02;;;;;;;44.38;30.98;;;;;;;18.14;87.09;100889.78;4985440;28;20141;-65
2023/05/22 06:13:28;;;;;;;45.53;31.02;;;;;;;18.16;86.83;100887.13;4985108;28;20575;-64
2023/05/22 06:15:53;;;;;;;47.08;32.55;;;;;;;18.14;87.42;100888.94;4984075;28;20046;-64
2023/05/22 06:18:18;;;;;;;46.42;32.58;;;;;;;18.15;87.04;100891.50;4979571;28;20602;-64
2023/05/22 06:20:44;;;;;;;50.15;33.15;;;;;;;18.22;87.26;100900.00;4977249;28;20053;-65
2023/05/22 06:23:10;;;;;;;51.53;35.28;;;;;;;18.30;86.80;100898.78;4981391;28;20117;-64
2023/05/22 06:25:36;;;;;;;50.88;33.58;;;;;;;18.48;86.04;100884.16;4980896;28;20096;-65
2023/05/22 06:28:01;;;;;;;54.72;33.55;;;;;;;18.55;85.38;100888.25;4979829;28;20568;-64
2023/05/22 06:30:27;;;;;;;53.03;34.78;;;;;;;18.64;85.35;100890.47;4981300;28;20033;-64
2023/05/22 06:32:52;;;;;;;58.50;33.15;;;;;;;18.76;84.58;100887.38;4979949;28;20042;-64
2023/05/22 06:35:18;;;;;;;51.97;34.42;;;;;;;18.83;84.05;100893.22;4977595;28;20100;-66
2023/05/22 06:37:43;;;;;;;51.60;34.15;;;;;;;18.92;83.47;100893.75;4980348;28;20034;-65
2023/05/22 06:40:09;;;;;;;52.75;33.08;;;;;;;19.02;83.43;100904.69;4979261;28;20507;-65
2023/05/22 06:42:34;;;;;;;53.97;35.53;;;;;;;18.98;83.08;100896.09;4982141;28;20052;-65
2023/05/22 06:45:00;;;;;;;56.33;35.38;;;;;;;18.98;82.65;100903.13;4975361;28;20466;-65
2023/05/22 06:47:25;;;;;;;53.83;36.72;;;;;;;19.09;82.65;100900.06;4976935;28;20859;-64
2023/05/22 06:49:51;;;;;;;57.15;36.72;;;;;;;18.97;82.83;100904.88;4977217;28;20365;-66
2023/05/22 06:52:16;;;;;;;59.83;37.30;;;;;;;19.04;82.69;100906.34;4978812;28;20044;-67
2023/05/22 06:54:43;;;;;;;55.20;35.15;;;;;;;19.16;82.24;100901.50;4982203;28;20045;-66
2023/05/22 06:57:09;;;;;;;54.28;36.63;;;;;;;19.24;81.61;100907.28;4976835;28;21084;-65
2023/05/22 06:59:34;;;;;;;59.03;36.08;;;;;;;19.36;81.47;100907.63;4980111;28;20043;-66
2023/05/22 07:01:59;;;;;;;57.20;35.30;;;;;;;19.41;80.84;100908.25;4976728;28;20034;-65
2023/05/22 07:04:25;;;;;;;61.38;35.38;;;;;;;19.39;81.23;100907.50;4980748;28;20026;-65
2023/05/22 07:06:51;;;;;;;52.83;34.60;;;;;;;19.45;80.85;100916.84;4985201;28;20042;-66
2023/05/22 07:09:18;;;;;;;57.88;37.47;;;;;;;19.35;81.04;100916.41;4979606;28;20077;-65
2023/05/22 07:11:44;;;;;;;60.58;37.80;;;;;;;19.35;81.32;100919.03;4982090;28;20051;-65
2023/05/22 07:14:11;;;;;;;62.17;38.70;;;;;;;19.38;81.86;100918.91;4980876;28;20041;-65
2023/05/22 07:16:40;;;;;;;53.85;34.88;;;;;;;19.54;81.20;100919.94;4979717;28;20082;-65
2023/05/22 07:19:07;;;;;;;59.88;37.47;;;;;;;19.65;80.62;100923.91;4979935;28;20053;-64
2023/05/22 07:21:34;;;;;;;58.67;38.45;;;;;;;19.86;79.82;100923.81;4977855;28;20038;-65
2023/05/22 07:24:07;;;;;;;59.42;38.67;;;;;;;19.89;78.43;100915.81;4977793;28;20035;-64
2023/05/22 07:26:36;;;;;;;60.30;38.42;;;;;;;19.88;78.99;100929.03;4978704;28;20037;-64
2023/05/22 07:29:02;;;;;;;59.13;38.17;;;;;;;19.93;78.66;100932.28;4978918;28;20041;-65
2023/05/22 07:31:28;;;;;;;61.63;36.65;;;;;;;20.03;78.82;100930.97;4977977;28;20049;-64
2023/05/22 07:33:54;;;;;;;62.92;40.58;;;;;;;20.00;78.13;100931.09;4976111;28;20043;-65
2023/05/22 07:36:19;;;;;;;55.95;38.50;;;;;;;20.02;78.63;100935.34;4978362;28;20034;-65
2023/05/22 07:38:45;;;;;;;52.03;36.10;;;;;;;20.12;78.63;100922.69;4979902;28;20074;-64
2023/05/22 07:41:10;;;;;;;53.60;37.88;;;;;;;20.20;77.43;100923.19;4980094;28;20184;-65
2023/05/22 07:43:36;;;;;;;56.78;37.30;;;;;;;20.36;77.54;100920.72;4983945;28;20045;-65
2023/05/22 07:46:01;;;;;;;53.38;35.45;;;;;;;20.53;76.95;100918.16;4981362;28;20595;-64
2023/05/22 07:48:27;;;;;;;48.13;34.00;;;;;;;20.66;76.06;100914.03;4979006;28;20696;-65
2023/05/22 07:50:53;;;;;;;55.60;38.80;;;;;;;20.77;75.70;100916.16;4983452;28;20760;-64
2023/05/22 07:53:18;;;;;;;51.53;36.15;;;;;;;20.97;74.86;100916.91;4981450;28;20041;-65
2023/05/22 07:55:44;;;;;;;56.60;37.17;;;;;;;21.01;73.99;100921.09;4979478;28;20038;-65
2023/05/22 07:58:09;;;;;;;53.13;38.22;;;;;;;20.84;73.86;100928.09;4991384;28;20781;-65
2023/05/22 08:00:35;;;;;;;60.53;40.53;;;;;;;20.81;74.52;100928.25;4986502;28;20074;-65
2023/05/22 08:03:00;;;;;;;60.08;39.65;;;;;;;20.98;74.53;100936.16;4981602;28;20084;-64
2023/05/22 08:05:26;;;;;;;55.13;37.63;;;;;;;20.87;74.06;100920.91;4988271;28;20029;-64
2023/05/22 08:07:51;;;;;;;50.60;36.58;;;;;;;21.01;74.00;100920.25;4980612;28;20030;-64
2023/05/22 08:10:18;;;;;;;57.42;39.22;;;;;;;21.02;73.71;100924.56;4979124;28;20490;-65
2023/05/22 08:12:44;;;;;;;57.13;39.53;;;;;;;21.04;73.82;100920.97;4980716;28;20050;-65
2023/05/22 08:15:10;;;;;;;52.97;38.05;;;;;;;21.19;73.67;100925.44;4984387;28;20576;-64
2023/05/22 08:17:35;;;;;;;58.63;39.00;;;;;;;21.31;72.67;100908.22;4979769;28;20092;-64
2023/05/22 08:20:01;;;;;;;54.05;39.20;;;;;;;21.45;72.66;100920.66;4978359;28;20045;-64
2023/05/22 08:22:28;;;;;;;52.95;35.85;;;;;;;21.64;72.45;100917.03;4984979;28;20038;-65
2023/05/22 08:24:54;;;;;;;58.53;40.22;;;;;;;21.67;72.08;100916.88;4982237;28;20559;-65
2023/05/22 08:27:19;;;;;;;54.58;39.53;;;;;;;21.74;71.68;100923.53;4977419;28;20045;-65
2023/05/22 08:29:45;;;;;;;56.88;40.28;;;;;;;21.88;71.55;100911.44;4982626;28;20050;-65
2023/05/22 08:32:10;;;;;;;58.85;40.97;;;;;;;21.86;70.51;100906.25;4979568;28;20103;-65
2023/05/22 08:34:35;;;;;;;58.40;39.95;;;;;;;21.93;69.41;100886.59;4986710;28;20034;-65
2023/05/22 08:37:01;;;;;;;60.90;43.38;;;;;;;21.88;70.07;100901.75;4989593;28;20038;-66
2023/05/22 08:39:27;;;;;;;55.78;39.63;;;;;;;21.78;70.60;100911.06;4987827;28;20062;-65
2023/05/22 08:41:52;;;;;;;63.95;41.80;;;;;;;21.72;70.83;100921.91;4986274;28;20038;-65
2023/05/22 08:44:20;;;;;;;59.05;41.17;;;;;;;21.70;70.38;100911.47;4982723;28;20065;-65
2023/05/22 08:46:47;;;;;;;65.50;43.50;;;;;;;21.73;70.30;100915.69;4987360;28;20395;-66
2023/05/22 08:49:12;;;;;;;64.25;44.92;;;;;;;21.84;69.97;100909.91;4981346;28;20340;-65
2023/05/22 08:51:39;;;;;;;60.45;44.30;;;;;;;21.85;69.96;100909.81;4983401;28;20763;-66
2023/05/22 08:54:06;;;;;;;60.17;42.65;;;;;;;21.79;70.40;100912.75;4985993;28;20054;-65
2023/05/22 08:56:33;;;;;;;55.80;39.92;;;;;;;21.88;70.40;100912.28;4986751;28;20038;-65
2023/05/22 08:58:59;;;;;;;61.33;43.45;;;;;;;22.00;70.10;100902.88;4986810;28;20022;-65
2023/05/22 09:01:25;;;;;;;61.38;42.83;;;;;;;21.95;69.60;100907.53;4983999;28;20101;-65
2023/05/22 09:03:50;;;;;;;68.15;45.15;;;;;;;21.96;69.36;100898.72;4981105;28;20758;-66
2023/05/22 09:06:16;;;;;;;64.38;44.47;;;;;;;21.99;69.28;100907.31;4981328;28;20448;-64
2023/05/22 09:08:42;;;;;;;65.50;44.45;;;;;;;21.93;69.29;100912.06;4989291;28;20535;-65
2023/05/22 09:11:09;;;;;;;59.10;43.13;;;;;;;22.18;69.46;100910.66;4986344;28;20488;-64
2023/05/22 09:13:38;;;;;;;66.00;44.58;;;;;;;22.29;69.07;100907.44;4984947;28;20046;-64
2023/05/22 09:16:09;;;;;;;58.55;40.85;;;;;;;22.34;68.25;100893.09;4984634;28;20138;-65
2023/05/22 09:18:36;;;;;;;56.30;39.08;;;;;;;22.37;68.36;100899.97;4985758;28;20574;-65
2023/05/22 09:21:02;;;;;;;61.67;43.08;;;;;;;22.32;67.72;100899.38;4989411;28;20042;-65
2023/05/22 09:23:28;;;;;;;61.05;42.35;;;;;;;22.35;68.37;100901.84;4985583;28;20086;-64
2023/05/22 09:25:57;;;;;;;62.63;43.10;;;;;;;22.35;68.75;100915.84;4985359;28;20029;-64
2023/05/22 09:28:23;;;;;;;63.28;42.97;;;;;;;22.51;68.67;100913.25;4986833;28;20053;-64
2023/05/22 09:30:53;;;;;;;67.13;45.13;;;;;;;22.52;68.10;100906.22;4985845;28;20537;-65
2023/05/22 09:33:20;;;;;;;60.05;44.33;;;;;;;22.56;67.74;100892.78;4986621;28;20136;-64
2023/05/22 09:35:46;;;;;;;64.50;46.42;;;;;;;22.42;68.14;100913.78;4987837;28;20096;-64
2023/05/22 09:38:12;;;;;;;60.10;42.80;;;;;;;22.47;68.79;100924.06;4985824;28;20034;-65
2023/05/22 09:40:39;;;;;;;68.18;46.40;;;;;;;22.35;68.10;100910.56;5013231;28;20053;-64
2023/05/22 09:43:10;;;;;;;57.85;41.25;;;;;;;22.58;68.08;100905.88;4994282;28;20038;-64
2023/05/22 09:45:37;;;;;;;63.28;43.17;;;;;;;22.54;67.99;100907.81;4985055;28;20093;-64
2023/05/22 09:48:07;;;;;;;62.38;43.33;;;;;;;22.44;68.31;100921.59;4986254;28;20076;-65
2023/05/22 09:50:33;;;;;;;57.45;42.13;;;;;;;22.56;68.10;100913.84;4985411;28;20731;-65
2023/05/22 09:53:03;;;;;;;60.40;42.40;;;;;;;22.56;67.88;100918.28;4987463;28;20042;-65
2023/05/22 09:55:30;;;;;;;58.58;40.55;;;;;;;22.58;68.08;100913.78;4980772;28;20056;-66
2023/05/22 09:57:57;;;;;;;56.15;41.83;;;;;;;22.58;68.13;100912.00;4985923;28;20042;-65
2023/05/22 10:00:24;;;;;;;61.95;42.90;;;;;;;22.63;67.40;100898.56;4982404;28;20559;-64
2023/05/22 10:03:05;;;;;;;59.03;44.67;;;;;;;22.51;67.11;100897.47;4980301;28;20042;-64
2023/05/22 10:05:31;;;;;;;54.65;43.83;;;;;;;22.49;66.68;100891.44;4986688;28;20500;-64
2023/05/22 10:08:07;;;;;;;59.90;42.78;;;;;;;22.54;66.00;100886.75;4983627;28;20106;-66
2023/05/22 10:10:34;;;;;;;56.78;43.17;;;;;;;22.63;67.15;100914.38;4986264;28;20038;-64
2023/05/22 10:13:02;;;;;;;49.58;38.80;;;;;;;22.72;65.88;100893.63;4985026;28;20030;-65
2023/05/22 10:15:29;;;;;;;53.83;39.65;;;;;;;22.36;66.57;100909.66;4983558;28;20096;-65
2023/05/22 10:17:55;;;;;;;49.53;35.17;;;;;;;22.14;67.65;100930.19;4981014;28;20847;-64
2023/05/22 10:20:23;;;;;;;52.47;33.28;;;;;;;22.11;67.84;100930.38;4981614;28;20041;-64
2023/05/22 10:22:49;;;;;;;49.17;33.38;;;;;;;22.36;67.00;100919.34;4984998;28;20435;-65
2023/05/22 10:25:17;;;;;;;46.00;32.15;;;;;;;22.28;67.51;100926.81;4988201;28;20069;-64
2023/05/22 10:27:42;;;;;;;46.97;31.88;;;;;;;22.47;66.85;100914.38;4985209;28;20042;-64
2023/05/22 10:30:20;;;;;;;50.33;34.08;;;;;;;22.47;66.75;100914.38;4978248;28;20120;-64
2023/05/22 10:32:57;;;;;;;43.08;33.28;;;;;;;22.46;66.23;100903.91;4986268;28;20042;-64
2023/05/22 10:35:39;;;;;;;45.22;34.10;;;;;;;22.27;66.62;100912.78;4981107;28;20697;-64
2023/05/22 10:38:20;;;;;;;48.92;34.08;;;;;;;22.05;67.42;100927.19;4980992;28;20479;-64
2023/05/22 10:40:47;;;;;;;42.75;33.15;;;;;;;22.32;66.92;100908.13;4983342;28;20145;-64
2023/05/22 10:43:12;;;;;;;50.42;34.15;;;;;;;22.40;66.30;100902.47;4987949;28;20399;-64
2023/05/22 10:45:40;;;;;;;46.60;31.75;;;;;;;22.50;65.76;100893.09;4983385;28;20585;-63
2023/05/22 10:48:13;;;;;;;50.50;35.03;;;;;;;22.23;66.19;100910.41;4980870;28;20038;-63
2023/05/22 10:50:49;;;;;;;52.53;35.85;;;;;;;22.37;66.13;100907.88;4985877;28;20133;-65
2023/05/22 10:53:30;;;;;;;50.13;35.85;;;;;;;22.44;66.06;100905.78;4979122;28;20026;-64
2023/05/22 10:55:57;;;;;;;52.28;36.90;;;;;;;21.89;67.13;100929.78;4980000;28;20106;-64
2023/05/22 10:58:33;;;;;;;50.83;36.85;;;;;;;22.19;66.93;100920.25;4987940;28;20034;-64
2023/05/22 11:01:18;;;;;;;45.83;33.83;;;;;;;22.55;64.84;100883.19;4988508;28;20065;-64
2023/05/22 11:03:56;;;;;;;48.03;34.38;;;;;;;22.70;63.93;100869.16;4983632;28;20065;-64
2023/05/22 11:06:44;;;;;;;52.00;37.00;;;;;;;22.87;64.54;100886.63;4987807;28;20113;-63
2023/05/22 11:09:16;;;;;;;55.13;36.83;;;;;;;22.86;63.45;100871.75;4984676;28;20031;-65